sensor_id;sensor_type;location;lat;lon;timestamp;P1;durP1;ratioP1;P2;durP2;ratioP2
67571;SDS011;54397;47.506;19.158;2024-01-30T00:01:00;49.40;;;27.40;;
67571;SDS011;54397;47.506;19.158;2024-01-30T00:04:24;42.63;;;25.23;;
67571;SDS011;54397;47.506;19.158;2024-01-30T00:07:46;41.23;;;23.97;;
67571;SDS011;54397;47.506;19.158;2024-01-30T00:11:08;40.40;;;23.20;;
67571;SDS011;54397;47.506;19.158;2024-01-30T00:14:29;44.67;;;23.77;;
67571;SDS011;54397;47.506;19.158;2024-01-30T00:17:51;47.07;;;24.17;;
67571;SDS011;54397;47.506;19.158;2024-01-30T00:21:14;43.50;;;24.23;;
67571;SDS011;54397;47.506;19.158;2024-01-30T00:24:35;47.77;;;24.43;;
67571;SDS011;54397;47.506;19.158;2024-01-30T00:27:57;43.10;;;26.20;;
67571;SDS011;54397;47.506;19.158;2024-01-30T00:31:24;55.27;;;27.37;;
67571;SDS011;54397;47.506;19.158;2024-01-30T00:34:46;63.93;;;32.07;;
67571;SDS011;54397;47.506;19.158;2024-01-30T00:38:08;83.20;;;37.83;;
67571;SDS011;54397;47.506;19.158;2024-01-30T00:41:29;55.07;;;27.50;;
67571;SDS011;54397;47.506;19.158;2024-01-30T00:44:53;42.40;;;24.30;;
67571;SDS011;54397;47.506;19.158;2024-01-30T00:48:15;46.03;;;24.67;;
67571;SDS011;54397;47.506;19.158;2024-01-30T00:51:36;47.20;;;25.50;;
67571;SDS011;54397;47.506;19.158;2024-01-30T00:54:59;46.27;;;24.43;;
67571;SDS011;54397;47.506;19.158;2024-01-30T00:58:21;46.93;;;24.10;;
67571;SDS011;54397;47.506;19.158;2024-01-30T01:01:45;57.83;;;26.27;;
67571;SDS011;54397;47.506;19.158;2024-01-30T01:05:07;40.30;;;22.80;;
67571;SDS011;54397;47.506;19.158;2024-01-30T01:08:31;47.30;;;23.43;;
67571;SDS011;54397;47.506;19.158;2024-01-30T01:11:53;46.83;;;24.80;;
67571;SDS011;54397;47.506;19.158;2024-01-30T01:15:14;47.53;;;24.97;;
67571;SDS011;54397;47.506;19.158;2024-01-30T01:18:38;38.63;;;21.73;;
67571;SDS011;54397;47.506;19.158;2024-01-30T01:22:00;45.33;;;23.40;;
67571;SDS011;54397;47.506;19.158;2024-01-30T01:25:24;47.37;;;25.57;;
67571;SDS011;54397;47.506;19.158;2024-01-30T01:28:49;55.47;;;27.93;;
67571;SDS011;54397;47.506;19.158;2024-01-30T01:32:10;53.23;;;28.63;;
67571;SDS011;54397;47.506;19.158;2024-01-30T01:35:32;51.57;;;27.07;;
67571;SDS011;54397;47.506;19.158;2024-01-30T01:38:56;48.73;;;26.53;;
67571;SDS011;54397;47.506;19.158;2024-01-30T01:42:18;51.07;;;26.17;;
67571;SDS011;54397;47.506;19.158;2024-01-30T01:45:44;43.63;;;23.63;;
67571;SDS011;54397;47.506;19.158;2024-01-30T01:49:06;40.13;;;22.30;;
67571;SDS011;54397;47.506;19.158;2024-01-30T01:52:29;42.60;;;22.97;;
67571;SDS011;54397;47.506;19.158;2024-01-30T01:55:53;40.70;;;22.20;;
67571;SDS011;54397;47.506;19.158;2024-01-30T01:59:16;38.87;;;21.83;;
67571;SDS011;54397;47.506;19.158;2024-01-30T02:02:39;43.70;;;22.70;;
67571;SDS011;54397;47.506;19.158;2024-01-30T02:06:01;43.77;;;22.97;;
67571;SDS011;54397;47.506;19.158;2024-01-30T02:09:26;43.20;;;22.43;;
67571;SDS011;54397;47.506;19.158;2024-01-30T02:12:51;43.03;;;22.80;;
67571;SDS011;54397;47.506;19.158;2024-01-30T02:16:12;36.27;;;21.50;;
67571;SDS011;54397;47.506;19.158;2024-01-30T02:19:34;37.07;;;20.27;;
67571;SDS011;54397;47.506;19.158;2024-01-30T02:22:56;37.47;;;20.37;;
67571;SDS011;54397;47.506;19.158;2024-01-30T02:26:22;40.10;;;21.33;;
67571;SDS011;54397;47.506;19.158;2024-01-30T02:29:44;36.37;;;20.50;;
67571;SDS011;54397;47.506;19.158;2024-01-30T02:33:06;40.47;;;21.40;;
67571;SDS011;54397;47.506;19.158;2024-01-30T02:36:30;36.93;;;20.70;;
67571;SDS011;54397;47.506;19.158;2024-01-30T02:39:54;45.20;;;22.80;;
67571;SDS011;54397;47.506;19.158;2024-01-30T02:43:18;41.17;;;22.90;;
67571;SDS011;54397;47.506;19.158;2024-01-30T02:46:40;40.33;;;22.63;;
67571;SDS011;54397;47.506;19.158;2024-01-30T02:50:04;43.20;;;23.70;;
67571;SDS011;54397;47.506;19.158;2024-01-30T02:53:27;39.17;;;20.53;;
67571;SDS011;54397;47.506;19.158;2024-01-30T02:56:48;40.93;;;21.37;;
67571;SDS011;54397;47.506;19.158;2024-01-30T03:00:12;40.60;;;22.20;;
67571;SDS011;54397;47.506;19.158;2024-01-30T03:03:38;35.63;;;19.47;;
67571;SDS011;54397;47.506;19.158;2024-01-30T03:07:04;39.57;;;21.43;;
67571;SDS011;54397;47.506;19.158;2024-01-30T03:10:26;42.43;;;21.97;;
67571;SDS011;54397;47.506;19.158;2024-01-30T03:13:47;35.87;;;21.17;;
67571;SDS011;54397;47.506;19.158;2024-01-30T03:17:09;39.80;;;21.93;;
67571;SDS011;54397;47.506;19.158;2024-01-30T03:20:31;39.70;;;20.17;;
67571;SDS011;54397;47.506;19.158;2024-01-30T03:23:53;33.93;;;19.10;;
67571;SDS011;54397;47.506;19.158;2024-01-30T03:27:14;35.67;;;20.33;;
67571;SDS011;54397;47.506;19.158;2024-01-30T03:30:38;38.07;;;21.30;;
67571;SDS011;54397;47.506;19.158;2024-01-30T03:34:01;38.10;;;20.57;;
67571;SDS011;54397;47.506;19.158;2024-01-30T03:37:25;34.50;;;18.87;;
67571;SDS011;54397;47.506;19.158;2024-01-30T03:40:47;36.73;;;19.93;;
67571;SDS011;54397;47.506;19.158;2024-01-30T03:44:11;34.43;;;20.03;;
67571;SDS011;54397;47.506;19.158;2024-01-30T03:47:35;41.47;;;20.80;;
67571;SDS011;54397;47.506;19.158;2024-01-30T03:50:56;62.60;;;23.33;;
67571;SDS011;54397;47.506;19.158;2024-01-30T03:54:18;47.20;;;21.30;;
67571;SDS011;54397;47.506;19.158;2024-01-30T03:57:41;38.27;;;21.13;;
67571;SDS011;54397;47.506;19.158;2024-01-30T04:01:03;38.80;;;20.03;;
67571;SDS011;54397;47.506;19.158;2024-01-30T04:04:25;30.87;;;17.33;;
67571;SDS011;54397;47.506;19.158;2024-01-30T04:07:52;32.77;;;18.40;;
67571;SDS011;54397;47.506;19.158;2024-01-30T04:11:13;30.57;;;17.83;;
67571;SDS011;54397;47.506;19.158;2024-01-30T04:14:37;31.27;;;17.20;;
67571;SDS011;54397;47.506;19.158;2024-01-30T04:18:01;36.23;;;18.10;;
67571;SDS011;54397;47.506;19.158;2024-01-30T04:21:25;33.23;;;19.03;;
67571;SDS011;54397;47.506;19.158;2024-01-30T04:24:49;42.43;;;20.03;;
67571;SDS011;54397;47.506;19.158;2024-01-30T04:28:14;37.37;;;19.83;;
67571;SDS011;54397;47.506;19.158;2024-01-30T04:31:36;37.67;;;19.07;;
67571;SDS011;54397;47.506;19.158;2024-01-30T04:34:58;38.43;;;20.50;;
67571;SDS011;54397;47.506;19.158;2024-01-30T04:38:20;41.10;;;20.57;;
67571;SDS011;54397;47.506;19.158;2024-01-30T04:41:44;32.60;;;18.67;;
67571;SDS011;54397;47.506;19.158;2024-01-30T04:45:06;37.13;;;19.83;;
67571;SDS011;54397;47.506;19.158;2024-01-30T04:48:28;39.53;;;19.97;;
67571;SDS011;54397;47.506;19.158;2024-01-30T04:51:52;33.50;;;18.87;;
67571;SDS011;54397;47.506;19.158;2024-01-30T04:55:16;33.47;;;19.90;;
67571;SDS011;54397;47.506;19.158;2024-01-30T04:58:42;37.40;;;19.67;;
67571;SDS011;54397;47.506;19.158;2024-01-30T05:02:04;41.83;;;19.97;;
67571;SDS011;54397;47.506;19.158;2024-01-30T05:05:26;36.60;;;19.83;;
67571;SDS011;54397;47.506;19.158;2024-01-30T05:08:50;42.07;;;19.90;;
67571;SDS011;54397;47.506;19.158;2024-01-30T05:12:16;33.57;;;19.17;;
67571;SDS011;54397;47.506;19.158;2024-01-30T05:15:40;33.40;;;19.90;;
67571;SDS011;54397;47.506;19.158;2024-01-30T05:19:06;36.77;;;20.30;;
67571;SDS011;54397;47.506;19.158;2024-01-30T05:22:31;36.70;;;19.53;;
67571;SDS011;54397;47.506;19.158;2024-01-30T05:25:55;47.07;;;20.17;;
67571;SDS011;54397;47.506;19.158;2024-01-30T05:29:24;33.10;;;19.43;;
67571;SDS011;54397;47.506;19.158;2024-01-30T05:32:46;46.57;;;24.30;;
67571;SDS011;54397;47.506;19.158;2024-01-30T05:36:08;64.00;;;30.50;;
67571;SDS011;54397;47.506;19.158;2024-01-30T05:39:32;38.63;;;20.77;;
67571;SDS011;54397;47.506;19.158;2024-01-30T05:42:57;40.90;;;20.60;;
67571;SDS011;54397;47.506;19.158;2024-01-30T05:46:24;41.30;;;21.17;;
67571;SDS011;54397;47.506;19.158;2024-01-30T05:49:46;40.43;;;20.63;;
67571;SDS011;54397;47.506;19.158;2024-01-30T05:53:07;40.57;;;22.57;;
67571;SDS011;54397;47.506;19.158;2024-01-30T05:56:29;40.47;;;21.97;;
67571;SDS011;54397;47.506;19.158;2024-01-30T05:59:51;40.03;;;22.57;;
67571;SDS011;54397;47.506;19.158;2024-01-30T06:03:15;38.27;;;20.83;;
67571;SDS011;54397;47.506;19.158;2024-01-30T06:06:39;38.40;;;20.83;;
67571;SDS011;54397;47.506;19.158;2024-01-30T06:10:01;37.53;;;21.63;;
67571;SDS011;54397;47.506;19.158;2024-01-30T06:13:23;39.83;;;19.37;;
67571;SDS011;54397;47.506;19.158;2024-01-30T06:16:45;37.27;;;20.63;;
67571;SDS011;54397;47.506;19.158;2024-01-30T06:20:06;33.93;;;19.67;;
67571;SDS011;54397;47.506;19.158;2024-01-30T06:23:30;38.07;;;20.10;;
67571;SDS011;54397;47.506;19.158;2024-01-30T06:26:52;33.47;;;18.73;;
67571;SDS011;54397;47.506;19.158;2024-01-30T06:30:17;34.00;;;19.37;;
67571;SDS011;54397;47.506;19.158;2024-01-30T06:33:39;34.60;;;19.47;;
67571;SDS011;54397;47.506;19.158;2024-01-30T06:37:03;32.87;;;17.80;;
67571;SDS011;54397;47.506;19.158;2024-01-30T06:40:25;66.17;;;33.20;;
67571;SDS011;54397;47.506;19.158;2024-01-30T06:43:49;47.10;;;22.10;;
67571;SDS011;54397;47.506;19.158;2024-01-30T06:47:14;40.57;;;24.23;;
67571;SDS011;54397;47.506;19.158;2024-01-30T06:50:35;44.17;;;26.80;;
67571;SDS011;54397;47.506;19.158;2024-01-30T06:53:57;49.87;;;25.10;;
67571;SDS011;54397;47.506;19.158;2024-01-30T06:57:21;35.73;;;21.97;;
67571;SDS011;54397;47.506;19.158;2024-01-30T07:00:43;37.63;;;22.33;;
67571;SDS011;54397;47.506;19.158;2024-01-30T07:04:07;38.57;;;21.37;;
67571;SDS011;54397;47.506;19.158;2024-01-30T07:07:29;46.03;;;22.07;;
67571;SDS011;54397;47.506;19.158;2024-01-30T07:10:50;38.57;;;22.53;;
67571;SDS011;54397;47.506;19.158;2024-01-30T07:14:21;37.53;;;20.90;;
67571;SDS011;54397;47.506;19.158;2024-01-30T07:17:45;39.53;;;21.20;;
67571;SDS011;54397;47.506;19.158;2024-01-30T07:21:07;39.80;;;21.30;;
67571;SDS011;54397;47.506;19.158;2024-01-30T07:24:29;41.23;;;22.00;;
67571;SDS011;54397;47.506;19.158;2024-01-30T07:27:53;43.33;;;23.23;;
67571;SDS011;54397;47.506;19.158;2024-01-30T07:31:14;42.60;;;22.47;;
67571;SDS011;54397;47.506;19.158;2024-01-30T07:34:42;39.60;;;22.77;;
67571;SDS011;54397;47.506;19.158;2024-01-30T07:38:23;35.83;;;22.73;;
67571;SDS011;54397;47.506;19.158;2024-01-30T07:41:44;47.17;;;23.50;;
67571;SDS011;54397;47.506;19.158;2024-01-30T07:45:08;40.53;;;23.43;;
67571;SDS011;54397;47.506;19.158;2024-01-30T07:48:33;39.83;;;22.33;;
67571;SDS011;54397;47.506;19.158;2024-01-30T07:51:55;39.27;;;24.57;;
67571;SDS011;54397;47.506;19.158;2024-01-30T07:55:19;99.43;;;46.13;;
67571;SDS011;54397;47.506;19.158;2024-01-30T07:58:49;54.27;;;24.83;;
67571;SDS011;54397;47.506;19.158;2024-01-30T08:02:13;37.90;;;24.37;;
67571;SDS011;54397;47.506;19.158;2024-01-30T08:05:35;49.97;;;24.43;;
67571;SDS011;54397;47.506;19.158;2024-01-30T08:09:00;36.07;;;23.37;;
67571;SDS011;54397;47.506;19.158;2024-01-30T08:12:25;34.37;;;21.50;;
67571;SDS011;54397;47.506;19.158;2024-01-30T08:15:48;39.27;;;20.80;;
67571;SDS011;54397;47.506;19.158;2024-01-30T08:19:10;34.17;;;22.13;;
67571;SDS011;54397;47.506;19.158;2024-01-30T08:22:32;37.17;;;21.57;;
67571;SDS011;54397;47.506;19.158;2024-01-30T08:25:54;36.93;;;21.27;;
67571;SDS011;54397;47.506;19.158;2024-01-30T08:29:16;32.97;;;22.40;;
67571;SDS011;54397;47.506;19.158;2024-01-30T08:32:37;34.50;;;20.33;;
67571;SDS011;54397;47.506;19.158;2024-01-30T08:36:01;35.13;;;20.87;;
67571;SDS011;54397;47.506;19.158;2024-01-30T08:39:23;35.10;;;21.07;;
67571;SDS011;54397;47.506;19.158;2024-01-30T08:42:48;36.00;;;22.50;;
67571;SDS011;54397;47.506;19.158;2024-01-30T08:46:12;28.00;;;18.83;;
67571;SDS011;54397;47.506;19.158;2024-01-30T08:49:38;29.08;;;18.45;;
67571;SDS011;54397;47.506;19.158;2024-01-30T08:53:00;28.77;;;19.80;;
67571;SDS011;54397;47.506;19.158;2024-01-30T08:56:22;35.67;;;18.83;;
67571;SDS011;54397;47.506;19.158;2024-01-30T08:59:46;32.10;;;19.83;;
67571;SDS011;54397;47.506;19.158;2024-01-30T09:03:07;33.43;;;19.47;;
67571;SDS011;54397;47.506;19.158;2024-01-30T09:06:29;29.50;;;19.27;;
67571;SDS011;54397;47.506;19.158;2024-01-30T09:09:51;29.63;;;18.23;;
67571;SDS011;54397;47.506;19.158;2024-01-30T09:13:15;39.07;;;24.37;;
67571;SDS011;54397;47.506;19.158;2024-01-30T09:16:56;33.90;;;21.60;;
67571;SDS011;54397;47.506;19.158;2024-01-30T09:20:17;33.33;;;18.17;;
67571;SDS011;54397;47.506;19.158;2024-01-30T09:23:41;26.90;;;17.50;;
67571;SDS011;54397;47.506;19.158;2024-01-30T09:27:03;26.88;;;17.35;;
67571;SDS011;54397;47.506;19.158;2024-01-30T09:30:27;27.52;;;18.20;;
67571;SDS011;54397;47.506;19.158;2024-01-30T09:33:49;25.27;;;16.17;;
67571;SDS011;54397;47.506;19.158;2024-01-30T09:37:15;23.63;;;15.45;;
67571;SDS011;54397;47.506;19.158;2024-01-30T09:40:39;23.75;;;16.90;;
67571;SDS011;54397;47.506;19.158;2024-01-30T09:44:03;25.73;;;16.98;;
67571;SDS011;54397;47.506;19.158;2024-01-30T09:47:27;28.23;;;16.73;;
67571;SDS011;54397;47.506;19.158;2024-01-30T09:50:49;27.40;;;17.30;;
67571;SDS011;54397;47.506;19.158;2024-01-30T09:54:14;25.90;;;16.73;;
67571;SDS011;54397;47.506;19.158;2024-01-30T09:57:38;66.17;;;38.37;;
67571;SDS011;54397;47.506;19.158;2024-01-30T10:01:01;30.33;;;17.00;;
67571;SDS011;54397;47.506;19.158;2024-01-30T10:04:26;25.43;;;15.77;;
67571;SDS011;54397;47.506;19.158;2024-01-30T10:07:54;27.80;;;17.40;;
67571;SDS011;54397;47.506;19.158;2024-01-30T10:11:18;19.20;;;13.77;;
67571;SDS011;54397;47.506;19.158;2024-01-30T10:14:41;19.50;;;12.55;;
67571;SDS011;54397;47.506;19.158;2024-01-30T10:18:05;17.58;;;13.38;;
67571;SDS011;54397;47.506;19.158;2024-01-30T10:21:29;26.40;;;14.70;;
67571;SDS011;54397;47.506;19.158;2024-01-30T10:24:56;21.65;;;14.73;;
67571;SDS011;54397;47.506;19.158;2024-01-30T10:28:29;20.05;;;13.32;;
67571;SDS011;54397;47.506;19.158;2024-01-30T10:31:58;17.92;;;13.32;;
67571;SDS011;54397;47.506;19.158;2024-01-30T10:35:24;22.10;;;13.55;;
67571;SDS011;54397;47.506;19.158;2024-01-30T10:38:47;17.67;;;12.48;;
67571;SDS011;54397;47.506;19.158;2024-01-30T10:42:18;21.70;;;12.70;;
67571;SDS011;54397;47.506;19.158;2024-01-30T10:49:09;17.48;;;10.77;;
67571;SDS011;54397;47.506;19.158;2024-01-30T10:52:32;14.48;;;10.23;;
67571;SDS011;54397;47.506;19.158;2024-01-30T10:55:54;16.40;;;12.10;;
67571;SDS011;54397;47.506;19.158;2024-01-30T10:59:19;17.48;;;12.18;;
67571;SDS011;54397;47.506;19.158;2024-01-30T11:02:47;20.80;;;11.70;;
67571;SDS011;54397;47.506;19.158;2024-01-30T11:06:12;16.67;;;11.75;;
67571;SDS011;54397;47.506;19.158;2024-01-30T11:09:40;16.88;;;11.07;;
67571;SDS011;54397;47.506;19.158;2024-01-30T11:13:09;16.52;;;10.25;;
67571;SDS011;54397;47.506;19.158;2024-01-30T11:16:34;18.33;;;11.25;;
67571;SDS011;54397;47.506;19.158;2024-01-30T11:19:58;13.38;;;10.52;;
67571;SDS011;54397;47.506;19.158;2024-01-30T11:23:22;17.88;;;10.32;;
67571;SDS011;54397;47.506;19.158;2024-01-30T11:26:48;14.63;;;10.20;;
67571;SDS011;54397;47.506;19.158;2024-01-30T11:30:29;14.35;;;8.93;;
67571;SDS011;54397;47.506;19.158;2024-01-30T11:33:52;19.98;;;9.25;;
67571;SDS011;54397;47.506;19.158;2024-01-30T11:37:17;14.98;;;9.65;;
67571;SDS011;54397;47.506;19.158;2024-01-30T11:40:43;12.43;;;8.55;;
67571;SDS011;54397;47.506;19.158;2024-01-30T11:44:08;16.33;;;8.80;;
67571;SDS011;54397;47.506;19.158;2024-01-30T11:47:30;12.32;;;8.25;;
67571;SDS011;54397;47.506;19.158;2024-01-30T11:50:59;14.18;;;9.15;;
67571;SDS011;54397;47.506;19.158;2024-01-30T11:54:23;12.43;;;8.43;;
67571;SDS011;54397;47.506;19.158;2024-01-30T11:57:47;14.50;;;9.23;;
67571;SDS011;54397;47.506;19.158;2024-01-30T12:01:10;13.43;;;9.70;;
67571;SDS011;54397;47.506;19.158;2024-01-30T12:04:32;9.88;;;7.32;;
67571;SDS011;54397;47.506;19.158;2024-01-30T12:07:56;16.02;;;8.68;;
67571;SDS011;54397;47.506;19.158;2024-01-30T12:11:23;13.98;;;8.50;;
67571;SDS011;54397;47.506;19.158;2024-01-30T12:14:45;13.32;;;8.52;;
67571;SDS011;54397;47.506;19.158;2024-01-30T12:18:07;12.18;;;7.95;;
67571;SDS011;54397;47.506;19.158;2024-01-30T12:21:29;14.10;;;8.52;;
67571;SDS011;54397;47.506;19.158;2024-01-30T12:24:54;15.27;;;7.72;;
67571;SDS011;54397;47.506;19.158;2024-01-30T12:28:18;11.40;;;6.43;;
67571;SDS011;54397;47.506;19.158;2024-01-30T12:31:41;9.73;;;6.05;;
67571;SDS011;54397;47.506;19.158;2024-01-30T12:35:15;8.60;;;6.18;;
67571;SDS011;54397;47.506;19.158;2024-01-30T12:38:40;12.40;;;7.35;;
67571;SDS011;54397;47.506;19.158;2024-01-30T12:42:04;9.55;;;6.70;;
67571;SDS011;54397;47.506;19.158;2024-01-30T12:45:26;8.98;;;7.05;;
67571;SDS011;54397;47.506;19.158;2024-01-30T12:48:51;10.02;;;7.28;;
67571;SDS011;54397;47.506;19.158;2024-01-30T12:52:16;12.63;;;6.88;;
67571;SDS011;54397;47.506;19.158;2024-01-30T12:55:40;9.10;;;6.95;;
67571;SDS011;54397;47.506;19.158;2024-01-30T12:59:02;8.88;;;5.85;;
67571;SDS011;54397;47.506;19.158;2024-01-30T13:02:24;11.13;;;6.20;;
67571;SDS011;54397;47.506;19.158;2024-01-30T13:05:46;8.27;;;5.95;;
67571;SDS011;54397;47.506;19.158;2024-01-30T13:09:07;9.15;;;6.10;;
67571;SDS011;54397;47.506;19.158;2024-01-30T13:12:29;6.95;;;5.05;;
67571;SDS011;54397;47.506;19.158;2024-01-30T13:15:53;7.03;;;5.35;;
67571;SDS011;54397;47.506;19.158;2024-01-30T13:19:17;7.10;;;5.35;;
67571;SDS011;54397;47.506;19.158;2024-01-30T13:22:39;8.38;;;4.80;;
67571;SDS011;54397;47.506;19.158;2024-01-30T13:26:01;8.68;;;4.90;;
67571;SDS011;54397;47.506;19.158;2024-01-30T13:29:28;7.10;;;4.63;;
67571;SDS011;54397;47.506;19.158;2024-01-30T13:32:49;9.25;;;6.10;;
67571;SDS011;54397;47.506;19.158;2024-01-30T13:36:11;9.23;;;6.45;;
67571;SDS011;54397;47.506;19.158;2024-01-30T13:39:38;6.55;;;5.05;;
67571;SDS011;54397;47.506;19.158;2024-01-30T13:43:02;8.13;;;4.15;;
67571;SDS011;54397;47.506;19.158;2024-01-30T13:46:24;6.32;;;4.90;;
67571;SDS011;54397;47.506;19.158;2024-01-30T13:49:48;5.68;;;4.57;;
67571;SDS011;54397;47.506;19.158;2024-01-30T13:53:12;6.70;;;5.53;;
67571;SDS011;54397;47.506;19.158;2024-01-30T13:56:37;5.40;;;4.30;;
67571;SDS011;54397;47.506;19.158;2024-01-30T13:59:59;5.90;;;4.20;;
67571;SDS011;54397;47.506;19.158;2024-01-30T14:03:26;7.50;;;4.15;;
67571;SDS011;54397;47.506;19.158;2024-01-30T14:06:50;8.82;;;5.03;;
67571;SDS011;54397;47.506;19.158;2024-01-30T14:10:25;5.97;;;4.40;;
67571;SDS011;54397;47.506;19.158;2024-01-30T14:13:49;8.43;;;5.30;;
67571;SDS011;54397;47.506;19.158;2024-01-30T14:17:10;7.05;;;5.00;;
67571;SDS011;54397;47.506;19.158;2024-01-30T14:20:35;9.30;;;5.57;;
67571;SDS011;54397;47.506;19.158;2024-01-30T14:23:59;7.88;;;5.65;;
67571;SDS011;54397;47.506;19.158;2024-01-30T14:27:25;7.68;;;5.10;;
67571;SDS011;54397;47.506;19.158;2024-01-30T14:30:47;6.15;;;4.72;;
67571;SDS011;54397;47.506;19.158;2024-01-30T14:34:09;6.43;;;4.80;;
67571;SDS011;54397;47.506;19.158;2024-01-30T14:37:34;6.10;;;4.35;;
67571;SDS011;54397;47.506;19.158;2024-01-30T14:40:55;6.15;;;4.72;;
67571;SDS011;54397;47.506;19.158;2024-01-30T14:44:19;8.30;;;5.28;;
67571;SDS011;54397;47.506;19.158;2024-01-30T14:47:41;9.98;;;4.75;;
67571;SDS011;54397;47.506;19.158;2024-01-30T14:51:03;6.93;;;5.05;;
67571;SDS011;54397;47.506;19.158;2024-01-30T14:54:27;6.18;;;4.53;;
67571;SDS011;54397;47.506;19.158;2024-01-30T14:57:48;7.93;;;4.65;;
67571;SDS011;54397;47.506;19.158;2024-01-30T15:01:15;6.40;;;4.93;;
67571;SDS011;54397;47.506;19.158;2024-01-30T15:04:39;8.02;;;5.00;;
67571;SDS011;54397;47.506;19.158;2024-01-30T15:08:01;9.93;;;5.10;;
67571;SDS011;54397;47.506;19.158;2024-01-30T15:11:23;7.47;;;5.28;;
67571;SDS011;54397;47.506;19.158;2024-01-30T15:14:45;7.00;;;5.10;;
67571;SDS011;54397;47.506;19.158;2024-01-30T15:18:14;10.02;;;5.25;;
67571;SDS011;54397;47.506;19.158;2024-01-30T15:21:38;10.20;;;5.68;;
67571;SDS011;54397;47.506;19.158;2024-01-30T15:25:05;9.75;;;5.63;;
67571;SDS011;54397;47.506;19.158;2024-01-30T15:28:34;12.27;;;8.05;;
67571;SDS011;54397;47.506;19.158;2024-01-30T15:32:00;33.40;;;20.50;;
67571;SDS011;54397;47.506;19.158;2024-01-30T15:35:22;12.32;;;7.05;;
67571;SDS011;54397;47.506;19.158;2024-01-30T15:38:46;13.65;;;9.05;;
67571;SDS011;54397;47.506;19.158;2024-01-30T15:42:07;20.50;;;8.52;;
67571;SDS011;54397;47.506;19.158;2024-01-30T15:45:29;14.48;;;8.95;;
67571;SDS011;54397;47.506;19.158;2024-01-30T15:48:53;14.55;;;8.88;;
67571;SDS011;54397;47.506;19.158;2024-01-30T15:52:17;13.98;;;8.52;;
67571;SDS011;54397;47.506;19.158;2024-01-30T15:55:39;18.52;;;12.20;;
67571;SDS011;54397;47.506;19.158;2024-01-30T15:59:01;17.65;;;11.05;;
67571;SDS011;54397;47.506;19.158;2024-01-30T16:02:25;19.30;;;8.05;;
67571;SDS011;54397;47.506;19.158;2024-01-30T16:05:48;33.40;;;9.02;;
67571;SDS011;54397;47.506;19.158;2024-01-30T16:09:12;17.33;;;9.50;;
67571;SDS011;54397;47.506;19.158;2024-01-30T16:12:35;17.38;;;9.32;;
67571;SDS011;54397;47.506;19.158;2024-01-30T16:15:57;19.92;;;9.98;;
67571;SDS011;54397;47.506;19.158;2024-01-30T16:19:19;60.17;;;33.28;;
67571;SDS011;54397;47.506;19.158;2024-01-30T16:22:41;22.92;;;14.35;;
67571;SDS011;54397;47.506;19.158;2024-01-30T16:26:03;17.75;;;11.57;;
67571;SDS011;54397;47.506;19.158;2024-01-30T16:29:25;16.08;;;10.27;;
67571;SDS011;54397;47.506;19.158;2024-01-30T16:32:47;19.10;;;10.93;;
67571;SDS011;54397;47.506;19.158;2024-01-30T16:36:12;22.88;;;10.60;;
67571;SDS011;54397;47.506;19.158;2024-01-30T16:39:37;21.58;;;13.00;;
67571;SDS011;54397;47.506;19.158;2024-01-30T16:43:01;26.20;;;15.27;;
67571;SDS011;54397;47.506;19.158;2024-01-30T16:46:25;23.48;;;14.60;;
67571;SDS011;54397;47.506;19.158;2024-01-30T16:49:47;25.92;;;14.85;;
67571;SDS011;54397;47.506;19.158;2024-01-30T16:53:11;53.43;;;29.57;;
67571;SDS011;54397;47.506;19.158;2024-01-30T16:56:34;28.45;;;17.35;;
67571;SDS011;54397;47.506;19.158;2024-01-30T17:00:00;29.80;;;18.30;;
67571;SDS011;54397;47.506;19.158;2024-01-30T17:03:22;30.83;;;17.43;;
67571;SDS011;54397;47.506;19.158;2024-01-30T17:06:44;36.30;;;18.87;;
67571;SDS011;54397;47.506;19.158;2024-01-30T17:10:08;35.47;;;19.20;;
67571;SDS011;54397;47.506;19.158;2024-01-30T17:13:31;32.03;;;19.67;;
67571;SDS011;54397;47.506;19.158;2024-01-30T17:16:58;34.70;;;21.47;;
67571;SDS011;54397;47.506;19.158;2024-01-30T17:20:27;35.97;;;21.20;;
67571;SDS011;54397;47.506;19.158;2024-01-30T17:23:49;22.73;;;13.07;;
67571;SDS011;54397;47.506;19.158;2024-01-30T17:27:12;24.73;;;14.73;;
67571;SDS011;54397;47.506;19.158;2024-01-30T17:30:35;22.90;;;14.25;;
67571;SDS011;54397;47.506;19.158;2024-01-30T17:34:00;30.90;;;20.67;;
67571;SDS011;54397;47.506;19.158;2024-01-30T17:37:22;37.50;;;23.48;;
67571;SDS011;54397;47.506;19.158;2024-01-30T17:40:46;118.60;;;63.88;;
67571;SDS011;54397;47.506;19.158;2024-01-30T17:44:12;35.17;;;24.00;;
67571;SDS011;54397;47.506;19.158;2024-01-30T17:47:35;31.55;;;22.25;;
67571;SDS011;54397;47.506;19.158;2024-01-30T17:51:01;36.30;;;24.20;;
67571;SDS011;54397;47.506;19.158;2024-01-30T17:54:26;39.97;;;24.17;;
67571;SDS011;54397;47.506;19.158;2024-01-30T17:57:48;38.00;;;23.50;;
67571;SDS011;54397;47.506;19.158;2024-01-30T18:01:10;34.33;;;22.90;;
67571;SDS011;54397;47.506;19.158;2024-01-30T18:04:32;38.63;;;22.73;;
67571;SDS011;54397;47.506;19.158;2024-01-30T18:07:58;36.30;;;22.97;;
67571;SDS011;54397;47.506;19.158;2024-01-30T18:11:22;36.73;;;22.27;;
67571;SDS011;54397;47.506;19.158;2024-01-30T18:14:44;35.43;;;21.97;;
67571;SDS011;54397;47.506;19.158;2024-01-30T18:18:06;34.40;;;21.90;;
67571;SDS011;54397;47.506;19.158;2024-01-30T18:21:32;32.43;;;21.73;;
67571;SDS011;54397;47.506;19.158;2024-01-30T18:24:54;34.07;;;21.63;;
67571;SDS011;54397;47.506;19.158;2024-01-30T18:28:16;34.80;;;21.03;;
67571;SDS011;54397;47.506;19.158;2024-01-30T18:31:38;36.03;;;20.57;;
67571;SDS011;54397;47.506;19.158;2024-01-30T18:35:03;40.90;;;24.70;;
67571;SDS011;54397;47.506;19.158;2024-01-30T18:38:25;61.13;;;36.13;;
67571;SDS011;54397;47.506;19.158;2024-01-30T18:41:49;80.77;;;45.80;;
67571;SDS011;54397;47.506;19.158;2024-01-30T18:45:11;58.70;;;38.83;;
67571;SDS011;54397;47.506;19.158;2024-01-30T18:48:38;48.07;;;27.33;;
67571;SDS011;54397;47.506;19.158;2024-01-30T18:52:00;43.97;;;24.80;;
67571;SDS011;54397;47.506;19.158;2024-01-30T18:55:24;43.37;;;25.53;;
67571;SDS011;54397;47.506;19.158;2024-01-30T18:58:48;38.67;;;24.87;;
67571;SDS011;54397;47.506;19.158;2024-01-30T19:02:10;40.40;;;25.07;;
67571;SDS011;54397;47.506;19.158;2024-01-30T19:05:33;43.17;;;24.07;;
67571;SDS011;54397;47.506;19.158;2024-01-30T19:08:55;42.67;;;23.87;;
67571;SDS011;54397;47.506;19.158;2024-01-30T19:12:16;38.23;;;24.50;;
67571;SDS011;54397;47.506;19.158;2024-01-30T19:15:38;41.93;;;25.03;;
67571;SDS011;54397;47.506;19.158;2024-01-30T19:19:00;41.07;;;24.97;;
67571;SDS011;54397;47.506;19.158;2024-01-30T19:22:26;41.17;;;23.60;;
67571;SDS011;54397;47.506;19.158;2024-01-30T19:25:48;35.17;;;23.33;;
67571;SDS011;54397;47.506;19.158;2024-01-30T19:29:10;41.70;;;24.53;;
67571;SDS011;54397;47.506;19.158;2024-01-30T19:32:34;41.40;;;24.47;;
67571;SDS011;54397;47.506;19.158;2024-01-30T19:35:57;42.07;;;24.23;;
67571;SDS011;54397;47.506;19.158;2024-01-30T19:39:21;41.03;;;23.80;;
67571;SDS011;54397;47.506;19.158;2024-01-30T19:42:43;41.83;;;24.47;;